Home > Products > Valid Products > MTR

000
SAUS46 KMTR 290256
MTRMHS
METAR KMHS 290256Z AUTO 11004KT 10SM FEW013 OVC020 06/04 A2978 RMK
AO2 RAB03E30 SLP100 P0001 60006 T00610044 58017





000
SAUS46 KMTR 290157
MTRMHS
METAR KMHS 290156Z AUTO VRB03KT 10SM BKN025 OVC045 06/04 A2980 RMK
AO2 RAB13E54 SLP107 P0005 T00610039





000
SAUS46 KMTR 290157
MTRMHS
METAR KMHS 290156Z AUTO VRB03KT 10SM BKN025 OVC045 06/04 A2980 RMK
AO2 RAB13E54 SLP107 P0005 T00610039





000
SAUS46 KMTR 290111
MTRMHS
SPECI KMHS 290111Z AUTO 12004KT 9SM FEW017 SCT025 OVC043 06/04 A2981
RMK AO2 T00610039





000
SAUS46 KMTR 290056
MTRMHS
METAR KMHS 290056Z AUTO 11004KT 8SM FEW016 BKN023 OVC037 06/04 A2982
RMK AO2 RAB25E39 SLP112 P0000 T00610039





000
SAUS46 KMTR 282356
MTRMHS
METAR KMHS 282356Z AUTO 13006KT 10SM FEW007 BKN023 OVC028 06/04
A2984 RMK AO2 RAE2257B22E49 SLP119 P0000 60002 T00610039 10078 20056
56019





000
SAUS46 KMTR 282322
MTRMHS
SPECI KMHS 282322Z AUTO VRB04KT 9SM -RA SCT009 BKN020 OVC043 06/04
A2986 RMK AO2 RAE2257B22 P0000 T00610039





000
SAUS46 KMTR 282211
MTRMHS
SPECI KMHS 282211Z AUTO 00000KT 5SM BR OVC014 06/04 A2986 RMK AO2
T00610039





000
SAUS46 KMTR 282156
MTRMHS
METAR KMHS 282156Z AUTO VRB03KT 6SM HZ OVC016 06/03 A2987 RMK AO2
SLP130 T00610033





000
SAUS46 KMTR 282056
MTRMHS
METAR KMHS 282056Z AUTO 00000KT 5SM BR FEW012 OVC019 06/03 A2990 RMK
AO2 SLP140 60001 T00560033 58025





000
SAUS46 KMTR 281948
MTRMHS
SPECI KMHS 281948Z AUTO 00000KT 10SM BKN028 OVC036 07/02 A2994 RMK
AO2 RAE12 P0000 T00670017





000
SAUS46 KMTR 281856
MTRMHS
METAR KMHS 281856Z AUTO 13004KT 10SM -RA FEW023 BKN035 OVC043 06/02
A2997 RMK AO2 SLP163 P0001 T00610022





000
SAUS46 KMTR 281757
MTRMHS
METAR KMHS 281756Z AUTO 11006KT 9SM -RA BKN050 OVC070 08/02 A2998
RMK AO2 RAB56 SLP164 P0000 60000 T00780022 10094 20078 53017





000
SAUS46 KMTR 281656
MTRMHS
METAR KMHS 281656Z AUTO VRB04KT 10SM BKN080 OVC100 08/01 A2995 RMK
AO2 SLP152 T00830011





000
SAUS46 KMTR 281556
MTRMHS
METAR KMHS 281556Z AUTO VRB04KT 10SM CLR 08/01 A2993 RMK AO2 SLP147
T00780006





000
SAUS46 KMTR 281457
MTRMHS
METAR KMHS 281456Z AUTO 11005KT 10SM CLR 08/01 A2992 RMK AO2 SLP144
T00780006 58013





000
SAUS46 KMTR 281356
MTRMHS
METAR KMHS 281356Z AUTO VRB06KT 10SM CLR 09/M02 A2994 RMK AO2 SLP148
T00891017





000
SAUS46 KMTR 281256
MTRMHS
METAR KMHS 281256Z AUTO 13004KT 10SM CLR 09/M02 A2996 RMK AO2 SLP156
T00891017





000
SAUS46 KMTR 281156
MTRMHS
METAR KMHS 281156Z AUTO VRB03KT 10SM CLR 09/M01 A2997 RMK AO2 SLP157
T00941006 10111 20094 58017





000
SAUS46 KMTR 281057
MTRMHS
METAR KMHS 281056Z AUTO VRB04KT 10SM CLR 09/01 A3000 RMK AO2 SLP166
T00940006





000
SAUS46 KMTR 280956
MTRMHS
METAR KMHS 280956Z AUTO 13003KT 10SM CLR 09/02 A3001 RMK AO2 SLP170
T00940017





000
SAUS46 KMTR 280956
MTRMHS
METAR KMHS 280956Z AUTO 13003KT 10SM CLR 09/02 A3001 RMK AO2 SLP170
T00940017





000
SAUS46 KMTR 280857
MTRMHS
METAR KMHS 280856Z AUTO VRB03KT 10SM CLR 10/02 A3002 RMK AO2 SLP173
T01000017 58007





000
SAUS46 KMTR 280656
MTRMHS
METAR KMHS 280656Z AUTO 12004KT 10SM CLR 11/M02 A3005 RMK AO2 SLP182
T01061017





000
SAUS46 KMTR 280556
MTRMHS
METAR KMHS 280556Z AUTO 10SM CLR 11/M03 A3005 RMK AO2 SLP181
T01061028 10111 20106 58009





000
SAUS46 KMTR 280356
MTRMHS
METAR KMHS 280356Z AUTO 09009G15KT 10SM CLR 11/M05 A3007 RMK AO2
SLP197 T01111050





000
SAUS46 KMTR 280356
MTRMHS
METAR KMHS 280356Z AUTO 09009G15KT 10SM CLR 11/M05 A3007 RMK AO2
SLP197 T01111050





000
SAUS46 KMTR 280257
MTRMHS
METAR KMHS 280256Z AUTO VRB05KT 10SM CLR 11/M04 A3008 RMK AO2 SLP200
T01111044 58006





000
SAUS46 KMTR 280156
MTRMHS
METAR KMHS 280156Z AUTO 11005KT 10SM CLR 11/M03 A3008 RMK AO2 SLP203
T01061033





000
SAUS46 KMTR 280156
MTRMHS
METAR KMHS 280156Z AUTO 11005KT 10SM CLR 11/M03 A3008 RMK AO2 SLP203
T01061033





000
SAUS46 KMTR 280056
MTRMHS
METAR KMHS 280056Z AUTO 12004KT 10SM CLR 11/M01 A3010 RMK AO2 SLP207
T01061011





000
SAUS46 KMTR 272357
MTRMHS
METAR KMHS 272356Z AUTO 13003KT 10SM CLR 11/M01 A3010 RMK AO2 SLP204
T01111006 10139 20111 55016





000
SAUS46 KMTR 272258
MTRMHS
METAR KMHS 272256Z AUTO 13005KT 10SM CLR 12/M01 A3009 RMK AO2 SLP202
T01221011





000
SAUS46 KMTR 272156
MTRMHS
METAR KMHS 272156Z AUTO 00000KT 10SM CLR 13/M01 A3012 RMK AO2 SLP210
T01331006





000
SAUS46 KMTR 272056
MTRMHS
METAR KMHS 272056Z AUTO VRB03KT 10SM CLR 13/00 A3015 RMK AO2 SLP222
T01280000 58014





000
SAUS46 KMTR 271956
MTRMHS
METAR KMHS 271956Z AUTO VRB03KT 10SM CLR 13/00 A3016 RMK AO2 SLP225
T01280000





000
SAUS46 KMTR 271858
MTRMHS
METAR KMHS 271856Z AUTO 10SM CLR 14/M01 A3019 RMK AO2 SLP234
T01391006





000
SAUS46 KMTR 271656
MTRMHS
METAR KMHS 271656Z AUTO 00000KT 10SM CLR 08/03 A3019 RMK AO2 SLP240
T00830028





000
SAUS46 KMTR 271456
MTRMHS
METAR KMHS 271456Z AUTO 00000KT 10SM CLR 06/02 A3020 RMK AO2 SLP247
T00610022 55003





000
SAUS46 KMTR 271357
MTRMHS
METAR KMHS 271356Z AUTO 00000KT 10SM CLR 06/02 A3020 RMK AO2 SLP246
T00610022





000
SAUS46 KMTR 271256
MTRMHS
METAR KMHS 271256Z AUTO 00000KT 10SM CLR 07/03 A3020 RMK AO2 SLP243
T00670033





000
SAUS46 KMTR 271157
MTRMHS
METAR KMHS 271156Z AUTO 00000KT 10SM CLR 08/03 A3021 RMK AO2 SLP241
T00830028 10083 20067 55008





000
SAUS46 KMTR 271056
MTRMHS
METAR KMHS 271056Z AUTO 00000KT 10SM CLR 08/03 A3021 RMK AO2 SLP238
T00780033





000
SAUS46 KMTR 270956
MTRMHS
METAR KMHS 270956Z AUTO 00000KT 10SM CLR 08/03 A3022 RMK AO2 SLP242
T00780033





000
SAUS46 KMTR 270956
MTRMHS
METAR KMHS 270956Z AUTO 00000KT 10SM CLR 08/03 A3022 RMK AO2 SLP242
T00780033





000
SAUS46 KMTR 270857
MTRMHS
METAR KMHS 270856Z AUTO 00000KT 10SM CLR 07/04 A3024 RMK AO2 SLP248
T00720039 56002





000
SAUS46 KMTR 270756
MTRMHS
METAR KMHS 270756Z AUTO 00000KT 10SM CLR 07/04 A3024 RMK AO2 SLP249
T00720044 401780000





000
SAUS46 KMTR 270656
MTRMHS
METAR KMHS 270656Z AUTO 00000KT 10SM CLR 07/04 A3024 RMK AO2 SLP250
T00720044





000
SAUS46 KMTR 270556
MTRMHS
METAR KMHS 270556Z AUTO VRB03KT 10SM CLR 07/04 A3025 RMK AO2 SLP259
T00720044 10139 20061 51004





000
SAUS46 KMTR 270458
MTRMHS
METAR KMHS 270456Z AUTO 00000KT 10SM CLR 08/06 A3025 RMK AO2 SLP264
T00780056





000
SAUS46 KMTR 270358
MTRMHS
METAR KMHS 270356Z AUTO 00000KT 10SM CLR 07/04 A3024 RMK AO2 SLP266
T00670044





000
SAUS46 KMTR 270358
MTRMHS
METAR KMHS 270356Z AUTO 00000KT 10SM CLR 07/04 A3024 RMK AO2 SLP266
T00670044





000
SAUS46 KMTR 270256
MTRMHS
METAR KMHS 270256Z AUTO 25003KT 10SM CLR 08/06 A3023 RMK AO2 SLP263
T00830056 58007





000
SAUS46 KMTR 270157
MTRMHS
METAR KMHS 270156Z AUTO 00000KT 10SM CLR 08/06 A3024 RMK AO2 SLP268
T00830056





000
SAUS46 KMTR 270056
MTRMHS
METAR KMHS 270056Z AUTO 00000KT 10SM CLR 11/05 A3025 RMK AO2 SLP267
T01110050





000
SAUS46 KMTR 262357
MTRMHS
METAR KMHS 262356Z AUTO 00000KT 10SM CLR 14/06 A3026 RMK AO2 SLP266
T01390056 10178 20089 56007





000
SAUS46 KMTR 262256
MTRMHS
METAR KMHS 262256Z AUTO VRB03KT 10SM CLR 15/06 A3026 RMK AO2 SLP266
T01500056





000
SAUS46 KMTR 262156
MTRMHS
METAR KMHS 262156Z AUTO 00000KT 10SM CLR 16/06 A3027 RMK AO2 SLP266
T01610056





000
SAUS46 KMTR 262156
MTRMHS
METAR KMHS 262156Z AUTO 00000KT 10SM CLR 16/06 A3027 RMK AO2 SLP266
T01610056





000
SAUS46 KMTR 262057
MTRMHS
METAR KMHS 262056Z AUTO VRB04KT 10SM CLR 17/04 A3028 RMK AO2 SLP269
T01720039 58019





000
SAUS46 KMTR 261956
MTRMHS
METAR KMHS 261956Z AUTO VRB03KT 10SM CLR 16/05 A3032 RMK AO2 SLP283
T01560050





000
SAUS46 KMTR 261856
MTRMHS
METAR KMHS 261856Z AUTO 14004KT 10SM CLR 14/05 A3033 RMK AO2 SLP291
T01390050





000
SAUS46 KMTR 261758
MTRMHS
METAR KMHS 261756Z AUTO 00000KT 10SM CLR 09/06 A3034 RMK AO2 SLP300
I6000 T00890061 10089 20000 58002





000
SAUS46 KMTR 261656
MTRMHS
METAR KMHS 261656Z AUTO 00000KT 4SM BR CLR 05/03 A3035 RMK AO2
SLP307 T00500033





000
SAUS46 KMTR 261556
MTRMHS
METAR KMHS 261556Z AUTO 00000KT 5SM BR CLR 03/01 A3035 RMK AO2
SLP308 T00280006





000
SAUS46 KMTR 261456
MTRMHS
METAR KMHS 261456Z AUTO 00000KT 9SM CLR 01/M01 A3035 RMK AO2 SLP310
I1000 I3000 T00111006 55005





000
SAUS46 KMTR 261356
MTRMHS
METAR KMHS 261356Z AUTO 00000KT 7SM CLR 00/M01 A3034 RMK AO2 SLP305
I1000 T00001011





000
SAUS46 KMTR 261256
MTRMHS
METAR KMHS 261256Z AUTO 00000KT 9SM CLR 01/M01 A3036 RMK AO2 SLP306
T00061011





000
SAUS46 KMTR 261156
MTRMHS
METAR KMHS 261156Z AUTO 00000KT 7SM CLR 01/M01 A3037 RMK AO2 SLP305
T00061011 10022 20000 58008





000
SAUS46 KMTR 261056
MTRMHS
METAR KMHS 261056Z AUTO 00000KT 6SM BR CLR 01/M01 A3038 RMK AO2
SLP308 T00061011





000
SAUS46 KMTR 260956
MTRMHS
METAR KMHS 260956Z AUTO 00000KT 6SM BR CLR 01/M01 A3038 RMK AO2
SLP306 T00111006





000
SAUS46 KMTR 260956
MTRMHS
METAR KMHS 260956Z AUTO 00000KT 6SM BR CLR 01/M01 A3038 RMK AO2
SLP306 T00111006





000
SAUS46 KMTR 260757
MTRMHS
METAR KMHS 260756Z AUTO 00000KT 4SM BR CLR 01/M01 A3041 RMK AO2
SLP317 T00111006 401611006





000
SAUS46 KMTR 260656
MTRMHS
METAR KMHS 260656Z AUTO 05003KT 4SM BR CLR 02/00 A3042 RMK AO2
SLP321 T00170000





000
SAUS46 KMTR 260556
MTRMHS
METAR KMHS 260556Z AUTO 00000KT 4SM BR CLR 02/01 A3042 RMK AO2
SLP326 T00220006 10128 20017 58003





000
SAUS46 KMTR 260458
MTRMHS
METAR KMHS 260456Z AUTO 05003KT 4SM BR CLR 03/01 A3043 RMK AO2
SLP333 T00280006





000
SAUS46 KMTR 260356
MTRMHS
METAR KMHS 260356Z AUTO 00000KT 5SM BR CLR 03/02 A3043 RMK AO2
SLP339 T00330017





000
SAUS46 KMTR 260356
MTRMHS
METAR KMHS 260356Z AUTO 00000KT 5SM BR CLR 03/02 A3043 RMK AO2
SLP339 T00330017





    US Dept of Commerce
    National Oceanic and Atmospheric Administration
    National Weather Service
    1325 East West Highway
    Silver Spring, MD 20910
    Page Author: NWS Internet Services Team
Disclaimer
Information Quality
Credits
Glossary
Privacy Policy
Freedom of Information Act (FOIA)
About Us
Career Opportunities